This is the latest recevied telemetry packets stored in our database for station/object DJ3RT-4. If no packets are shown the sender has not sent any telemetry packets the latest 1 day(s).
Telemetry packets is used to share measurements like repeteater parameters, battery voltage, radiation readings (or any other measurements).
| Time | Press* | Temp.in* | Hum* | QNH* | Temp.out* |
|---|---|---|---|---|---|
| 1778030160 | 961.6 hPa | 19 C deg | 40.2 % | 1008.7 hPa | 12.4 C deg |
| 1778028345 | 961.7 hPa | 19.1 C deg | 40.1 % | 1008.8 hPa | 12.7 C deg |
| 1778026530 | 961.7 hPa | 19.1 C deg | 40.2 % | 1008.8 hPa | 13.1 C deg |
| 1778024715 | 962.2 hPa | 19.2 C deg | 39.7 % | 1009.3 hPa | 13.4 C deg |
| 1778022899 | 962.2 hPa | 19.2 C deg | 40 % | 1009.3 hPa | 13.4 C deg |
| 1778021084 | 962 hPa | 19.3 C deg | 39.9 % | 1009.1 hPa | 13.9 C deg |
| 1778019269 | 961.9 hPa | 19.4 C deg | 39.8 % | 1009 hPa | 14.2 C deg |
| 1778017454 | 961.7 hPa | 19.5 C deg | 39.7 % | 1008.7 hPa | 14.1 C deg |
| 1778015639 | 961.3 hPa | 19.6 C deg | 39.9 % | 1008.3 hPa | 13.8 C deg |
| 1778013824 | 960.7 hPa | 19.6 C deg | 40 % | 1007.7 hPa | 14.5 C deg |
| 1778012009 | 960.3 hPa | 19.7 C deg | 40.1 % | 1007.2 hPa | 13.8 C deg |
| 1778010194 | 959.8 hPa | 19.8 C deg | 39.6 % | 1006.7 hPa | 13.5 C deg |
| 1778008379 | 959.1 hPa | 19.8 C deg | 39.3 % | 1006 hPa | 14 C deg |
| 1778006564 | 959 hPa | 19.8 C deg | 38.6 % | 1005.9 hPa | 14.4 C deg |
| 1778004749 | 959 hPa | 19.9 C deg | 38 % | 1005.9 hPa | 15.8 C deg |
| 1778002933 | 958.8 hPa | 19.9 C deg | 37.1 % | 1005.6 hPa | 17.5 C deg |
| 1778001118 | 958.5 hPa | 20 C deg | 36.3 % | 1005.3 hPa | 18.8 C deg |
| 1777999303 | 957.9 hPa | 20.4 C deg | 33.8 % | 1004.6 hPa | 21.4 C deg |
| 1777997488 | 957.5 hPa | 20.5 C deg | 33.6 % | 1004.2 hPa | 23 C deg |
| 1777995673 | 957.5 hPa | 20.5 C deg | 32.8 % | 1004.2 hPa | 23.2 C deg |
| 1777993858 | 957.5 hPa | 20.8 C deg | 32.2 % | 1004.2 hPa | 24.2 C deg |
| 1777992043 | 957.7 hPa | 21.2 C deg | 31.5 % | 1004.3 hPa | 25.1 C deg |
| 1777990228 | 957.8 hPa | 20.8 C deg | 33.2 % | 1004.5 hPa | 25.5 C deg |
| 1777988413 | 958.1 hPa | 19.9 C deg | 39.4 % | 1004.9 hPa | 25.4 C deg |
| 1777986597 | 958.4 hPa | 19.5 C deg | 39.8 % | 1005.3 hPa | 24.2 C deg |
*Used Equation Coefficients:
Press: 0, 1, 0
Temp.in: 0, 1, 0
Hum: 0, 1, 0
QNH: 0, 1, 0
Temp.out: 0, 1, 0
- The parameter names for the analog channels will be Value1, Value2, Value3 (up to Value5) if station has not sent a PARAM-packet that specifies the parameter names for each analog channel.
- Each analog value is a decimal number between 000 and 255 (according to APRS specifications). The receiver use the telemetry equation coefficientsto to restore the original sensor values. If no EQNS-packet with equation coefficients is sent we will show the values as is (this corresponds to the equation coefficients a=0, b=1 and c=0).
The sent equation coefficients is used in the equation: a * value2 + b * value + c. - The units for the analog values will not be shown if station has not sent a UNIT-packet specifying what unit's to use.
- The parameter names for the digital bits will be Bit1, Bit2, Bit3 (up to Bit8) if station has not sent a PARAM-packet that specifies the parameter names for each digital bit.
- All bit labels will be named "On" if station has not sent a UNIT-packet that specifies the label of each bit.
- A bit is considered to be On when the bit is 1 if station has not sent a BITS-packet that specifies another "Bit sense" (a BITS-packet specify the state of the bits that match the BIT labels)